MIDDLE PEAK CA US current weather conditions

sailwx.info

Wind from 329 at 9 knots gusting 16

Air temperature 20.6° C
Dewpoint 5.0° C

Last reported at 2018-May-28 06:36 UTC.
Time now 2018-May-28 07:51 UTC

Location: N 37°56' W 122°35'.
View on Google Maps.

See reports from other nearby stations

  
Tides and Currents Weather Stations Pressure Air Temp Water Temp Dewpoint Dewpoint Depression Visibility Wind Speed Wind Dir Waves Ship Positions
date/time (UTC)wind fromknots sea level pressurealtimeterstation pressurevisibilityair tempwater tempwave heightnotes
2018-May-28 06:36 329 9 gusting 16 20.6
2018-May-28 05:36 330 11 gusting 20 20.6
2018-May-28 04:36 323 13 gusting 20 20.0
2018-May-28 03:36 320 12 gusting 19 19.4
2018-May-28 02:36 322 13 gusting 21 20.6
2018-May-28 01:36 317 11 gusting 16 21.1
2018-May-28 00:36 324 11 gusting 19 21.7
2018-May-27 23:36 320 9 gusting 15 22.8
2018-May-27 22:36 314 9 gusting 14 22.8
2018-May-27 21:36 309 8 gusting 14 22.2
2018-May-27 20:36 324 7 gusting 13 22.2
2018-May-27 19:36 351 6 gusting 10 22.2
2018-May-27 18:36 340 6 gusting 12 21.1
2018-May-27 17:36 345 7 gusting 12 19.4
2018-May-27 16:36 345 6 gusting 13 18.3
2018-May-27 15:36 348 6 gusting 11 17.2
2018-May-27 14:36 346 6 gusting 14 16.1
2018-May-27 13:36 346 9 gusting 18 14.4
2018-May-27 12:36 337 12 gusting 19 12.8
2018-May-27 11:36 332 11 gusting 17 12.2
2018-May-27 10:36 327 10 gusting 15 11.1
2018-May-27 09:36 325 11 gusting 16 11.7
2018-May-27 08:36 322 13 gusting 18 10.6
2018-May-27 07:36 324 10 gusting 15 11.1
2018-May-27 06:36 322 8 gusting 15 11.7
2018-May-27 05:36 299 8 gusting 10 11.7
2018-May-27 04:36 293 7 gusting 10 11.1
2018-May-27 03:36 294 7 gusting 10 10.6
2018-May-27 02:36 322 3 gusting 7 13.3
2018-May-27 01:36 301 2 gusting 7 15.0
2018-May-27 00:36 322 4 gusting 12 15.6
2018-May-26 23:36 319 7 gusting 12 14.4
2018-May-26 22:36 326 6 gusting 9 14.4
2018-May-26 21:36 352 4 gusting 9 13.3
2018-May-26 20:36 345 4 gusting 8 12.2
2018-May-26 19:36 330 4 gusting 7 11.7
2018-May-26 18:36 027 1 gusting 5 11.7
2018-May-26 17:36 330 2 gusting 5 10.6
2018-May-26 16:36 349 2 gusting 6 10.0
2018-May-26 15:36 318 6 gusting 10 8.9
2018-May-26 14:36 325 4 gusting 12 8.3
2018-May-26 13:36 326 9 gusting 13 7.8
2018-May-26 12:36 329 11 gusting 14 7.2
2018-May-26 11:36 320 10 gusting 14 7.2
2018-May-26 10:36 306 8 gusting 13 7.2
2018-May-26 09:36 245 4 gusting 14 8.9
2018-May-26 08:36 292 8 gusting 12 7.8
2018-May-26 07:36 281 7 gusting 12 8.3